createdAt,value
2022-10-25T00:00:25.896Z,956.30
2022-10-25T00:01:25.966Z,956.30
2022-10-25T00:02:25.952Z,956.33
2022-10-25T00:03:25.860Z,956.37
2022-10-25T00:04:25.873Z,956.37
2022-10-25T00:05:25.859Z,956.38
2022-10-25T00:06:25.815Z,956.32
2022-10-25T00:07:25.889Z,956.38
2022-10-25T00:08:25.818Z,956.37
2022-10-25T00:09:25.767Z,956.39
2022-10-25T00:10:25.920Z,956.32
2022-10-25T00:11:25.742Z,956.34
2022-10-25T00:12:25.816Z,956.37
2022-10-25T00:13:25.726Z,956.36
2022-10-25T00:14:25.709Z,956.34
2022-10-25T00:15:25.699Z,956.35
2022-10-25T00:16:25.673Z,956.33
2022-10-25T00:17:25.699Z,956.32
2022-10-25T00:18:25.658Z,956.30
2022-10-25T00:19:25.672Z,956.27
2022-10-25T00:20:25.630Z,956.24
2022-10-25T00:21:25.612Z,956.23
2022-10-25T00:22:25.606Z,956.23
2022-10-25T00:23:25.588Z,956.21
2022-10-25T00:24:25.640Z,956.24
2022-10-25T00:25:25.565Z,956.27
2022-10-25T00:26:25.545Z,956.27
2022-10-25T00:27:25.527Z,956.32
2022-10-25T00:28:25.521Z,956.36
2022-10-25T00:29:25.534Z,956.40
2022-10-25T00:30:25.490Z,956.37
2022-10-25T00:31:25.471Z,956.38
2022-10-25T00:32:25.460Z,956.40
2022-10-25T00:33:25.448Z,956.43
2022-10-25T00:34:25.464Z,956.45
2022-10-25T00:35:25.421Z,956.45
2022-10-25T00:36:25.405Z,956.42
2022-10-25T00:37:25.389Z,956.41
2022-10-25T00:38:25.414Z,956.42
2022-10-25T00:39:25.364Z,956.45
2022-10-25T00:40:25.360Z,956.45
2022-10-25T00:41:25.344Z,956.48
2022-10-25T00:42:25.369Z,956.51
2022-10-25T00:43:25.313Z,956.55
2022-10-25T00:44:25.307Z,956.52
2022-10-25T00:45:25.293Z,956.56
2022-10-25T00:46:25.275Z,956.53
2022-10-25T00:47:25.286Z,956.56
2022-10-25T00:48:25.268Z,956.58
2022-10-25T00:49:25.249Z,956.54
2022-10-25T00:50:25.231Z,956.49
2022-10-25T00:51:25.215Z,956.53
2022-10-25T00:52:25.197Z,956.51
2022-10-25T00:53:25.187Z,956.53
2022-10-25T00:54:25.165Z,956.51
2022-10-25T00:55:25.161Z,956.50
2022-10-25T00:56:25.161Z,956.51
2022-10-25T00:57:25.184Z,956.52
2022-10-25T00:58:25.106Z,956.54
2022-10-25T00:59:25.092Z,956.53
2022-10-25T01:00:25.121Z,956.51
2022-10-25T01:01:25.200Z,956.52
2022-10-25T01:02:25.214Z,956.49
2022-10-25T01:03:25.035Z,956.51
2022-10-25T01:04:25.061Z,956.49
2022-10-25T01:05:25.046Z,956.53
2022-10-25T01:06:24.998Z,956.49
2022-10-25T01:07:24.983Z,956.43
2022-10-25T01:08:24.976Z,956.45
2022-10-25T01:09:24.983Z,956.44
2022-10-25T01:10:24.953Z,956.44
2022-10-25T01:11:24.935Z,956.48
2022-10-25T01:12:24.924Z,956.53
2022-10-25T01:13:24.940Z,956.56
2022-10-25T01:14:24.893Z,956.53
2022-10-25T01:15:24.903Z,956.54
2022-10-25T01:16:24.865Z,956.50
2022-10-25T01:17:24.849Z,956.49
2022-10-25T01:18:24.841Z,956.46
2022-10-25T01:19:24.889Z,956.48
2022-10-25T01:20:24.853Z,956.48
2022-10-25T01:21:24.789Z,956.48
2022-10-25T01:22:24.852Z,956.48
2022-10-25T01:23:24.771Z,956.46
2022-10-25T01:24:24.754Z,956.46
2022-10-25T01:25:24.769Z,956.49
2022-10-25T01:26:24.728Z,956.42
2022-10-25T01:27:24.718Z,956.41
2022-10-25T01:28:24.805Z,956.38
2022-10-25T01:29:24.715Z,956.34
2022-10-25T01:30:24.714Z,956.38
2022-10-25T01:31:24.669Z,956.38
2022-10-25T01:32:24.655Z,956.43
2022-10-25T01:33:24.659Z,956.39
2022-10-25T01:34:24.631Z,956.37
2022-10-25T01:35:24.623Z,956.37
2022-10-25T01:36:24.621Z,956.37
2022-10-25T01:37:24.583Z,956.37
2022-10-25T01:38:24.559Z,956.37
2022-10-25T01:39:24.577Z,956.39
2022-10-25T01:40:24.541Z,956.38
2022-10-25T01:41:24.517Z,956.35
2022-10-25T01:42:24.504Z,956.35
2022-10-25T01:43:24.518Z,956.36
2022-10-25T01:44:24.520Z,956.37
2022-10-25T01:45:24.470Z,956.38
2022-10-25T01:46:24.465Z,956.43
2022-10-25T01:47:24.475Z,956.38
2022-10-25T01:48:24.431Z,956.42
2022-10-25T01:49:24.450Z,956.40
2022-10-25T01:50:24.410Z,956.36
2022-10-25T01:51:24.421Z,956.28
2022-10-25T01:52:24.410Z,956.27
2022-10-25T01:53:24.374Z,956.24
2022-10-25T01:54:24.353Z,956.21
2022-10-25T01:55:24.341Z,956.17
2022-10-25T01:56:24.345Z,956.15
2022-10-25T01:57:24.309Z,956.20
2022-10-25T01:58:24.292Z,956.17
2022-10-25T01:59:24.282Z,956.12
2022-10-25T02:00:24.293Z,956.09
2022-10-25T02:01:24.561Z,956.04
2022-10-25T02:02:24.244Z,956.08
2022-10-25T02:03:24.232Z,956.09
2022-10-25T02:04:24.211Z,956.04
2022-10-25T02:05:24.218Z,956.05
2022-10-25T02:06:24.185Z,956.03
2022-10-25T02:07:24.237Z,956.09
2022-10-25T02:08:24.181Z,956.05
2022-10-25T02:09:24.212Z,956.07
2022-10-25T02:10:24.158Z,956.13
2022-10-25T02:11:24.125Z,956.10
2022-10-25T02:12:24.096Z,956.14
2022-10-25T02:13:24.097Z,956.15
2022-10-25T02:14:24.122Z,956.16
2022-10-25T02:15:24.085Z,956.10
2022-10-25T02:16:24.031Z,956.05
2022-10-25T02:17:24.037Z,956.02
2022-10-25T02:18:24.086Z,956.00
2022-10-25T02:19:24.053Z,956.00
2022-10-25T02:20:23.998Z,956.02
2022-10-25T02:21:24.018Z,955.96
2022-10-25T02:22:23.962Z,956.01
2022-10-25T02:23:23.960Z,956.02
2022-10-25T02:24:23.979Z,956.02
2022-10-25T02:25:23.967Z,955.98
2022-10-25T02:26:23.913Z,955.97
2022-10-25T02:27:23.936Z,955.97
2022-10-25T02:28:23.881Z,956.02
2022-10-25T02:29:23.926Z,956.00
2022-10-25T02:30:23.858Z,956.00
2022-10-25T02:31:23.863Z,956.02
2022-10-25T02:32:23.830Z,955.99
2022-10-25T02:33:23.825Z,956.00
2022-10-25T02:34:23.804Z,955.99
2022-10-25T02:35:23.802Z,956.01
2022-10-25T02:36:23.800Z,956.06
2022-10-25T02:37:23.786Z,956.06
2022-10-25T02:38:23.752Z,956.11
2022-10-25T02:39:26.508Z,956.14
2022-10-25T02:40:23.733Z,956.14
2022-10-25T02:41:23.743Z,956.19
2022-10-25T02:42:23.733Z,956.21
2022-10-25T02:43:23.752Z,956.25
2022-10-25T02:44:23.666Z,956.24
2022-10-25T02:45:23.684Z,956.23
2022-10-25T02:46:23.637Z,956.19
2022-10-25T02:47:23.664Z,956.18
2022-10-25T02:48:23.608Z,956.21
2022-10-25T02:49:23.625Z,956.23
2022-10-25T02:50:23.587Z,956.23
2022-10-25T02:51:23.574Z,956.29
2022-10-25T02:52:23.567Z,956.29
2022-10-25T02:53:23.550Z,956.32
2022-10-25T02:54:23.554Z,956.37
2022-10-25T02:55:23.559Z,956.35
2022-10-25T02:56:23.530Z,956.38
2022-10-25T02:57:23.539Z,956.37
2022-10-25T02:58:23.493Z,956.40
2022-10-25T02:59:23.473Z,956.37
2022-10-25T03:00:23.467Z,956.38
2022-10-25T03:01:23.542Z,956.40
2022-10-25T03:02:23.424Z,956.35
2022-10-25T03:03:23.410Z,956.37
2022-10-25T03:04:23.403Z,956.35
2022-10-25T03:05:23.406Z,956.31
2022-10-25T03:06:23.367Z,956.36
2022-10-25T03:07:23.356Z,956.37
2022-10-25T03:08:23.363Z,956.37
2022-10-25T03:09:23.331Z,956.32
2022-10-25T03:10:23.346Z,956.39
2022-10-25T03:11:23.323Z,956.41
2022-10-25T03:12:23.291Z,956.40
2022-10-25T03:13:23.285Z,956.41
2022-10-25T03:14:23.260Z,956.36
2022-10-25T03:15:23.282Z,956.34
2022-10-25T03:16:23.256Z,956.34
2022-10-25T03:17:23.242Z,956.32
2022-10-25T03:18:23.231Z,956.29
2022-10-25T03:19:23.225Z,956.37
2022-10-25T03:20:23.177Z,956.37
2022-10-25T03:21:23.209Z,956.39
2022-10-25T03:22:23.191Z,956.40
2022-10-25T03:23:23.145Z,956.40
2022-10-25T03:24:23.168Z,956.38
2022-10-25T03:25:23.122Z,956.39
2022-10-25T03:26:23.090Z,956.40
2022-10-25T03:27:23.086Z,956.44
2022-10-25T03:28:23.080Z,956.43
2022-10-25T03:29:23.072Z,956.41
2022-10-25T03:30:23.043Z,956.42
2022-10-25T03:31:23.036Z,956.39
2022-10-25T03:32:23.015Z,956.35
2022-10-25T03:33:23.076Z,956.33
2022-10-25T03:34:23.016Z,956.34
2022-10-25T03:35:22.980Z,956.37
2022-10-25T03:36:22.976Z,956.34
2022-10-25T03:37:22.951Z,956.35
2022-10-25T03:38:22.934Z,956.41
2022-10-25T03:39:22.948Z,956.46
2022-10-25T03:40:22.938Z,956.49
2022-10-25T03:41:22.894Z,956.54
2022-10-25T03:42:22.878Z,956.61
2022-10-25T03:44:22.855Z,956.60
2022-10-25T03:45:22.836Z,956.54
2022-10-25T03:46:22.824Z,956.56
2022-10-25T03:47:22.851Z,956.53
2022-10-25T03:48:22.794Z,956.47
2022-10-25T03:49:22.816Z,956.49
2022-10-25T03:50:22.778Z,956.46
2022-10-25T03:51:22.767Z,956.50
2022-10-25T03:52:22.792Z,956.61
2022-10-25T03:53:22.729Z,956.65
2022-10-25T03:54:24.406Z,956.67
2022-10-25T03:55:22.743Z,956.66
2022-10-25T03:56:22.686Z,956.69
2022-10-25T03:57:22.688Z,956.71
2022-10-25T03:58:22.656Z,956.73
2022-10-25T03:59:22.683Z,956.75
2022-10-25T04:00:22.635Z,956.73
2022-10-25T04:01:22.894Z,956.69
2022-10-25T04:02:22.610Z,956.70
2022-10-25T04:03:22.629Z,956.73
2022-10-25T04:04:22.574Z,956.79
2022-10-25T04:05:22.584Z,956.83
2022-10-25T04:06:22.565Z,956.86
2022-10-25T04:07:22.573Z,956.88
2022-10-25T04:08:22.548Z,956.85
2022-10-25T04:09:22.515Z,956.78
2022-10-25T04:10:23.274Z,956.76
2022-10-25T04:11:22.665Z,956.79
2022-10-25T04:12:22.468Z,956.83
2022-10-25T04:13:22.487Z,956.87
2022-10-25T04:14:22.444Z,956.87
2022-10-25T04:15:22.434Z,956.80
2022-10-25T04:16:22.436Z,956.68
2022-10-25T04:17:22.443Z,956.65
2022-10-25T04:18:22.401Z,956.65
2022-10-25T04:19:22.383Z,956.68
2022-10-25T04:20:22.368Z,956.69
2022-10-25T04:21:22.383Z,956.71
2022-10-25T04:22:22.369Z,956.74
2022-10-25T04:23:22.323Z,956.74
2022-10-25T04:24:22.298Z,956.74
2022-10-25T04:25:22.295Z,956.72
2022-10-25T04:26:22.313Z,956.74
2022-10-25T04:27:22.284Z,956.74
2022-10-25T04:28:22.245Z,956.72
2022-10-25T04:29:22.246Z,956.72
2022-10-25T04:30:22.229Z,956.74
2022-10-25T04:31:22.240Z,956.76
2022-10-25T04:32:22.239Z,956.73
2022-10-25T04:33:22.186Z,956.74
2022-10-25T04:34:22.176Z,956.76
2022-10-25T04:35:22.165Z,956.77
2022-10-25T04:36:22.142Z,956.75
2022-10-25T04:37:22.169Z,956.75
2022-10-25T04:38:22.117Z,956.69
2022-10-25T04:39:22.100Z,956.71
2022-10-25T04:40:24.003Z,956.67
2022-10-25T04:41:22.086Z,956.69
2022-10-25T04:42:22.101Z,956.70
2022-10-25T04:43:22.053Z,956.71
2022-10-25T04:44:22.075Z,956.69
2022-10-25T04:45:22.025Z,956.68
2022-10-25T04:46:22.034Z,956.68
2022-10-25T04:47:21.997Z,956.66
2022-10-25T04:48:22.002Z,956.70
2022-10-25T04:49:22.003Z,956.66
2022-10-25T04:50:21.990Z,956.69
2022-10-25T04:51:21.996Z,956.74
2022-10-25T04:52:21.931Z,956.77
2022-10-25T04:53:21.909Z,956.81
2022-10-25T04:54:21.899Z,956.81
2022-10-25T04:55:21.885Z,956.82
2022-10-25T04:56:21.913Z,956.79
2022-10-25T04:57:21.896Z,956.80
2022-10-25T04:58:21.847Z,956.78
2022-10-25T04:59:21.873Z,956.80
2022-10-25T05:00:21.825Z,956.80
2022-10-25T05:01:21.872Z,956.80
2022-10-25T05:02:21.780Z,956.75
2022-10-25T05:03:21.809Z,956.76
2022-10-25T05:04:21.781Z,956.77
2022-10-25T05:05:21.752Z,956.75
2022-10-25T05:06:21.739Z,956.69
2022-10-25T05:07:21.720Z,956.71
2022-10-25T05:08:21.725Z,956.74
2022-10-25T05:09:21.726Z,956.74
2022-10-25T05:10:21.680Z,956.78
2022-10-25T05:11:21.705Z,956.77
2022-10-25T05:12:21.646Z,956.81
2022-10-25T05:13:21.639Z,956.83
2022-10-25T05:14:21.664Z,956.83
2022-10-25T05:15:21.616Z,956.84
2022-10-25T05:16:21.604Z,956.83
2022-10-25T05:17:21.580Z,956.76
2022-10-25T05:18:21.599Z,956.79
2022-10-25T05:19:21.557Z,956.80
2022-10-25T05:20:21.546Z,956.76
2022-10-25T05:21:21.602Z,956.80
2022-10-25T05:22:21.521Z,956.81
2022-10-25T05:23:21.534Z,956.83
2022-10-25T05:24:21.510Z,956.87
2022-10-25T05:25:21.491Z,956.90
2022-10-25T05:26:21.555Z,956.94
2022-10-25T05:27:21.488Z,956.94
2022-10-25T05:28:21.436Z,956.92
2022-10-25T05:29:21.413Z,956.94
2022-10-25T05:30:21.497Z,956.99
2022-10-25T05:31:21.414Z,956.88
2022-10-25T05:32:21.434Z,956.84
2022-10-25T05:33:21.370Z,956.84
2022-10-25T05:34:21.350Z,956.82
2022-10-25T05:35:21.342Z,956.82
2022-10-25T05:36:21.321Z,956.80
2022-10-25T05:37:21.356Z,956.84
2022-10-25T05:38:21.294Z,956.86
2022-10-25T05:39:21.313Z,956.85
2022-10-25T05:40:21.278Z,956.79
2022-10-25T05:41:21.273Z,956.77
2022-10-25T05:42:21.242Z,956.80
2022-10-25T05:43:21.264Z,956.79
2022-10-25T05:44:21.218Z,956.82
2022-10-25T05:45:21.237Z,956.79
2022-10-25T05:46:21.183Z,956.81
2022-10-25T05:47:21.187Z,956.82
2022-10-25T05:48:21.163Z,956.86
2022-10-25T05:49:21.168Z,956.89
2022-10-25T05:50:21.174Z,956.90
2022-10-25T05:51:33.439Z,956.97
2022-10-25T05:52:21.110Z,956.98
2022-10-25T05:53:21.098Z,956.98
2022-10-25T05:54:21.142Z,957.00
2022-10-25T05:55:21.075Z,957.05
2022-10-25T05:56:21.051Z,957.05
2022-10-25T05:57:21.043Z,957.01
2022-10-25T05:58:21.019Z,957.01
2022-10-25T05:59:21.038Z,956.99
2022-10-25T06:00:21.000Z,956.99
2022-10-25T06:01:21.105Z,956.99
2022-10-25T06:02:21.127Z,957.00
2022-10-25T06:03:20.962Z,957.03
2022-10-25T06:04:20.972Z,957.01
2022-10-25T06:05:20.931Z,957.05
2022-10-25T06:06:20.924Z,957.11
2022-10-25T06:07:20.907Z,957.09
2022-10-25T06:08:20.931Z,957.11
2022-10-25T06:09:20.872Z,957.12
2022-10-25T06:10:20.901Z,957.11
2022-10-25T06:11:20.868Z,957.15
2022-10-25T06:12:20.872Z,957.14
2022-10-25T06:13:20.854Z,957.13
2022-10-25T06:14:20.817Z,957.16
2022-10-25T06:15:20.821Z,957.11
2022-10-25T06:16:20.791Z,957.16
2022-10-25T06:17:20.792Z,957.18
2022-10-25T06:18:20.751Z,957.21
2022-10-25T06:19:20.787Z,957.21
2022-10-25T06:20:20.721Z,957.25
2022-10-25T06:21:20.719Z,957.24
2022-10-25T06:22:20.704Z,957.19
2022-10-25T06:23:20.687Z,957.17
2022-10-25T06:24:20.713Z,957.15
2022-10-25T06:25:20.656Z,957.15
2022-10-25T06:26:20.645Z,957.14
2022-10-25T06:27:20.660Z,957.16
2022-10-25T06:28:20.623Z,957.12
2022-10-25T06:29:20.645Z,957.18
2022-10-25T06:30:20.649Z,957.17
2022-10-25T06:31:20.593Z,957.15
2022-10-25T06:32:20.563Z,957.21
2022-10-25T06:33:23.379Z,957.20
2022-10-25T06:34:20.578Z,957.18
2022-10-25T06:35:20.527Z,957.20
2022-10-25T06:36:20.516Z,957.23
2022-10-25T06:37:20.494Z,957.25
2022-10-25T06:38:20.489Z,957.27
2022-10-25T06:39:20.505Z,957.32
2022-10-25T06:41:20.439Z,957.37
2022-10-25T06:42:20.424Z,957.40
2022-10-25T06:43:20.420Z,957.40
2022-10-25T06:44:20.397Z,957.40
2022-10-25T06:45:20.418Z,957.45
2022-10-25T06:46:20.413Z,957.47
2022-10-25T06:47:20.355Z,957.47
2022-10-25T06:48:20.365Z,957.51
2022-10-25T06:49:20.328Z,957.52
2022-10-25T06:50:20.350Z,957.54
2022-10-25T06:51:20.344Z,957.53
2022-10-25T06:52:20.309Z,957.54
2022-10-25T06:53:20.291Z,957.60
2022-10-25T06:54:20.291Z,957.59
2022-10-25T06:55:20.263Z,957.60
2022-10-25T06:56:20.249Z,957.58
2022-10-25T06:57:20.252Z,957.63
2022-10-25T06:58:20.221Z,957.68
2022-10-25T06:59:20.224Z,957.70
2022-10-25T07:00:20.194Z,957.69
2022-10-25T07:01:20.331Z,957.69
2022-10-25T07:02:20.273Z,957.66
2022-10-25T07:03:20.186Z,957.63
2022-10-25T07:04:20.153Z,957.63
2022-10-25T07:05:20.118Z,957.64
2022-10-25T07:06:20.170Z,957.67
2022-10-25T07:07:20.093Z,957.66
2022-10-25T07:08:20.083Z,957.63
2022-10-25T07:09:20.087Z,957.66
2022-10-25T07:10:20.059Z,957.63
2022-10-25T07:11:20.031Z,957.64
2022-10-25T07:12:20.024Z,957.68
2022-10-25T07:13:20.031Z,957.69
2022-10-25T07:14:20.025Z,957.63
2022-10-25T07:16:19.989Z,957.71
2022-10-25T07:17:19.956Z,957.67
2022-10-25T07:18:19.942Z,957.70
2022-10-25T07:19:19.954Z,957.74
2022-10-25T07:20:19.915Z,957.75
2022-10-25T07:21:19.907Z,957.75
2022-10-25T07:22:19.892Z,957.76
2022-10-25T07:23:19.941Z,957.81
2022-10-25T07:24:19.865Z,957.81
2022-10-25T07:25:19.884Z,957.79
2022-10-25T07:26:19.859Z,957.83
2022-10-25T07:27:19.819Z,957.81
2022-10-25T07:28:19.957Z,957.72
2022-10-25T07:29:19.878Z,957.73
2022-10-25T07:30:19.788Z,957.71
2022-10-25T07:31:19.800Z,957.75
2022-10-25T07:32:19.786Z,957.76
2022-10-25T07:33:19.753Z,957.76
2022-10-25T07:34:19.754Z,957.79
2022-10-25T07:35:19.708Z,957.85
2022-10-25T07:36:19.711Z,957.83
2022-10-25T07:37:19.683Z,957.87
2022-10-25T07:38:20.967Z,957.87
2022-10-25T07:39:19.689Z,957.89
2022-10-25T07:40:19.643Z,957.87
2022-10-25T07:41:19.623Z,957.91
2022-10-25T07:42:19.652Z,957.83
2022-10-25T07:43:19.608Z,957.79
2022-10-25T07:44:24.639Z,957.78
2022-10-25T07:45:22.307Z,957.78
2022-10-25T07:46:19.560Z,957.79
2022-10-25T07:47:19.578Z,957.79
2022-10-25T07:48:19.566Z,957.80
2022-10-25T07:49:19.510Z,957.80
2022-10-25T07:50:19.510Z,957.82
2022-10-25T07:51:19.510Z,957.83
2022-10-25T07:52:19.514Z,957.89
2022-10-25T07:53:19.488Z,957.88
2022-10-25T07:54:19.462Z,957.87
2022-10-25T07:55:19.447Z,957.86
2022-10-25T07:56:23.089Z,957.80
2022-10-25T07:57:19.413Z,957.85
2022-10-25T07:58:19.430Z,957.82
2022-10-25T07:59:19.381Z,957.81
2022-10-25T08:00:19.419Z,957.79
2022-10-25T08:01:19.406Z,957.76
2022-10-25T08:02:20.893Z,957.72
2022-10-25T08:03:19.416Z,957.71
2022-10-25T08:04:19.351Z,957.68
2022-10-25T08:05:19.298Z,957.66
2022-10-25T08:06:19.305Z,957.66
2022-10-25T08:07:19.266Z,957.67
2022-10-25T08:08:19.301Z,957.66
2022-10-25T08:09:36.785Z,957.70
2022-10-25T08:10:19.245Z,957.71
2022-10-25T08:11:19.233Z,957.67
2022-10-25T08:12:22.515Z,957.64
2022-10-25T08:13:19.201Z,957.63
2022-10-25T08:14:19.264Z,957.61
2022-10-25T08:15:19.164Z,957.60
2022-10-25T08:16:19.186Z,957.59
2022-10-25T08:17:19.161Z,957.59
2022-10-25T08:18:19.126Z,957.57
2022-10-25T08:19:19.120Z,957.62
2022-10-25T08:20:19.225Z,957.60
2022-10-25T08:21:19.100Z,957.60
2022-10-25T08:22:19.108Z,957.57
2022-10-25T08:23:19.065Z,957.58
2022-10-25T08:25:20.699Z,957.57
2022-10-25T08:26:19.049Z,957.51
2022-10-25T08:27:19.002Z,957.57
2022-10-25T08:28:19.004Z,957.56
2022-10-25T08:29:18.985Z,957.55
2022-10-25T08:30:18.964Z,957.56
2022-10-25T08:31:18.993Z,957.55
2022-10-25T08:32:18.942Z,957.59
2022-10-25T08:33:18.920Z,957.57
2022-10-25T08:34:18.938Z,957.53
2022-10-25T08:35:18.919Z,957.53
2022-10-25T08:36:18.890Z,957.54
2022-10-25T08:37:18.879Z,957.54
2022-10-25T08:38:18.851Z,957.55
2022-10-25T08:39:18.868Z,957.55
2022-10-25T08:40:18.823Z,957.57
2022-10-25T08:41:18.814Z,957.58
2022-10-25T08:42:18.807Z,957.56
2022-10-25T08:43:18.787Z,957.60
2022-10-25T08:44:18.795Z,957.62
2022-10-25T08:45:18.762Z,957.63
2022-10-25T08:46:18.747Z,957.60
2022-10-25T08:47:18.737Z,957.64
2022-10-25T08:48:18.729Z,957.62
2022-10-25T08:49:18.746Z,957.61
2022-10-25T08:50:18.697Z,957.63
2022-10-25T08:51:18.678Z,957.60
2022-10-25T08:52:18.668Z,957.60
2022-10-25T08:53:18.647Z,957.63
2022-10-25T08:54:18.664Z,957.65
2022-10-25T08:55:18.617Z,957.59
2022-10-25T08:56:18.619Z,957.64
2022-10-25T08:57:18.617Z,957.64
2022-10-25T08:58:18.588Z,957.65
2022-10-25T08:59:18.574Z,957.65
2022-10-25T09:00:18.557Z,957.65
2022-10-25T09:01:18.713Z,957.60
2022-10-25T09:02:18.672Z,957.60
2022-10-25T09:03:18.507Z,957.61
2022-10-25T09:04:18.509Z,957.62
2022-10-25T09:05:18.509Z,957.60
2022-10-25T09:06:18.474Z,957.61
2022-10-25T09:07:18.455Z,957.61
2022-10-25T09:08:18.451Z,957.62
2022-10-25T09:09:18.438Z,957.64
2022-10-25T09:10:18.492Z,957.69
2022-10-25T09:11:18.409Z,957.61
2022-10-25T09:12:18.388Z,957.68
2022-10-25T09:13:18.374Z,957.62
2022-10-25T09:14:18.400Z,957.66
2022-10-25T09:15:18.340Z,957.65
2022-10-25T09:16:18.339Z,957.70
2022-10-25T09:17:18.383Z,957.63
2022-10-25T09:18:18.350Z,957.64
2022-10-25T09:19:18.288Z,957.67
2022-10-25T09:20:18.391Z,957.61
2022-10-25T09:21:22.393Z,957.64
2022-10-25T09:22:18.276Z,957.66
2022-10-25T09:23:18.286Z,957.63
2022-10-25T09:24:18.228Z,957.60
2022-10-25T09:25:18.212Z,957.60
2022-10-25T09:26:18.204Z,957.62
2022-10-25T09:27:18.211Z,957.65
2022-10-25T09:28:18.178Z,957.62
2022-10-25T09:29:18.157Z,957.61
2022-10-25T09:30:18.179Z,957.61
2022-10-25T09:31:18.133Z,957.65
2022-10-25T09:32:18.122Z,957.63
2022-10-25T09:33:18.110Z,957.64
2022-10-25T09:34:18.089Z,957.62
2022-10-25T09:35:18.104Z,957.60
2022-10-25T09:36:18.099Z,957.57
2022-10-25T09:37:18.046Z,957.58
2022-10-25T09:38:18.044Z,957.58
2022-10-25T09:39:18.029Z,957.50
2022-10-25T09:40:18.121Z,957.51
2022-10-25T09:41:18.029Z,957.56
2022-10-25T09:42:17.988Z,957.58
2022-10-25T09:43:17.960Z,957.53
2022-10-25T09:44:17.959Z,957.54
2022-10-25T09:45:17.971Z,957.51
2022-10-25T09:46:17.923Z,957.56
2022-10-25T09:47:17.956Z,957.55
2022-10-25T09:48:17.911Z,957.57
2022-10-25T09:49:17.875Z,957.54
2022-10-25T09:50:17.905Z,957.51
2022-10-25T09:51:17.864Z,957.53
2022-10-25T09:52:17.837Z,957.52
2022-10-25T09:53:20.353Z,957.50
2022-10-25T09:54:17.814Z,957.53
2022-10-25T09:55:17.794Z,957.52
2022-10-25T09:56:17.805Z,957.49
2022-10-25T09:57:17.773Z,957.51
2022-10-25T09:58:17.805Z,957.51
2022-10-25T09:59:17.737Z,957.53
2022-10-25T10:00:17.813Z,957.44
2022-10-25T10:01:17.923Z,957.51
2022-10-25T10:02:17.823Z,957.49
2022-10-25T10:03:17.699Z,957.50
2022-10-25T10:04:17.737Z,957.49
2022-10-25T10:05:17.692Z,957.45
2022-10-25T10:06:17.658Z,957.47
2022-10-25T10:07:17.625Z,957.46
2022-10-25T10:08:17.665Z,957.47
2022-10-25T10:09:17.675Z,957.51
2022-10-25T10:10:17.625Z,957.52
2022-10-25T10:11:17.578Z,957.47
2022-10-25T10:12:17.570Z,957.47
2022-10-25T10:13:17.556Z,957.49
2022-10-25T10:14:17.612Z,957.43
2022-10-25T10:15:17.530Z,957.49
2022-10-25T10:16:17.539Z,957.44
2022-10-25T10:17:17.503Z,957.45
2022-10-25T10:18:17.487Z,957.47
2022-10-25T10:19:17.495Z,957.44
2022-10-25T10:20:17.461Z,957.44
2022-10-25T10:21:17.447Z,957.42
2022-10-25T10:22:17.470Z,957.43
2022-10-25T10:23:17.419Z,957.40
2022-10-25T10:24:17.492Z,957.37
2022-10-25T10:25:17.396Z,957.31
2022-10-25T10:26:17.378Z,957.31
2022-10-25T10:27:17.420Z,957.30
2022-10-25T10:28:17.346Z,957.30
2022-10-25T10:29:17.858Z,957.24
2022-10-25T10:30:17.324Z,957.24
2022-10-25T10:31:17.317Z,957.27
2022-10-25T10:32:17.289Z,957.22
2022-10-25T10:33:17.324Z,957.23
2022-10-25T10:34:17.273Z,957.24
2022-10-25T10:35:17.258Z,957.20
2022-10-25T10:36:17.245Z,957.22
2022-10-25T10:37:17.273Z,957.18
2022-10-25T10:38:17.215Z,957.18
2022-10-25T10:39:17.205Z,957.14
2022-10-25T10:40:17.184Z,957.15
2022-10-25T10:41:17.189Z,957.11
2022-10-25T10:42:17.327Z,957.10
2022-10-25T10:43:17.148Z,957.11
2022-10-25T10:44:17.140Z,957.11
2022-10-25T10:45:17.154Z,957.11
2022-10-25T10:46:17.106Z,957.08
2022-10-25T10:47:17.096Z,957.03
2022-10-25T10:48:17.104Z,957.03
2022-10-25T10:49:17.069Z,957.00
2022-10-25T10:50:17.083Z,956.99
2022-10-25T10:51:32.051Z,956.96
2022-10-25T10:52:17.110Z,956.93
2022-10-25T10:53:17.045Z,956.92
2022-10-25T10:54:17.037Z,956.90
2022-10-25T10:55:16.989Z,956.88
2022-10-25T10:56:16.995Z,956.85
2022-10-25T10:57:16.971Z,956.89
2022-10-25T10:58:16.944Z,956.77
2022-10-25T10:59:16.940Z,956.80
2022-10-25T11:00:16.961Z,956.83
2022-10-25T11:01:17.133Z,956.80
2022-10-25T11:02:17.145Z,956.78
2022-10-25T11:03:16.900Z,956.76
2022-10-25T11:04:16.862Z,956.73
2022-10-25T11:05:16.853Z,956.77
2022-10-25T11:06:16.866Z,956.77
2022-10-25T11:07:16.855Z,956.76
2022-10-25T11:08:16.824Z,956.78
2022-10-25T11:09:16.872Z,956.78
2022-10-25T11:10:16.821Z,956.72
2022-10-25T11:11:16.775Z,956.73
2022-10-25T11:12:16.756Z,956.71
2022-10-25T11:13:16.763Z,956.69
2022-10-25T11:14:16.735Z,956.70
2022-10-25T11:15:16.727Z,956.63
2022-10-25T11:16:16.711Z,956.66
2022-10-25T11:17:16.685Z,956.66
2022-10-25T11:18:16.705Z,956.65
2022-10-25T11:19:16.673Z,956.68
2022-10-25T11:20:16.657Z,956.67
2022-10-25T11:21:16.638Z,956.65
2022-10-25T11:22:16.619Z,956.67
2022-10-25T11:23:16.636Z,956.66
2022-10-25T11:24:16.599Z,956.68
2022-10-25T11:25:16.625Z,956.66
2022-10-25T11:26:16.575Z,956.68
2022-10-25T11:27:16.584Z,956.67
2022-10-25T11:28:16.548Z,956.61
2022-10-25T11:29:16.624Z,956.64
2022-10-25T11:30:16.547Z,956.68
2022-10-25T11:31:16.511Z,956.64
2022-10-25T11:32:16.485Z,956.59
2022-10-25T11:33:16.479Z,956.58
2022-10-25T11:34:16.519Z,956.62
2022-10-25T11:35:16.549Z,956.64
2022-10-25T11:36:16.449Z,956.58
2022-10-25T11:37:16.431Z,956.60
2022-10-25T11:38:16.419Z,956.56
2022-10-25T11:39:16.516Z,956.55
2022-10-25T11:40:16.390Z,956.59
2022-10-25T11:41:16.375Z,956.60
2022-10-25T11:42:16.392Z,956.55
2022-10-25T11:43:16.343Z,956.55
2022-10-25T11:44:16.376Z,956.52
2022-10-25T11:45:16.323Z,956.56
2022-10-25T11:46:16.306Z,956.57
2022-10-25T11:47:16.307Z,956.54
2022-10-25T11:48:16.309Z,956.53
2022-10-25T11:49:16.280Z,956.56
2022-10-25T11:50:16.260Z,956.55
2022-10-25T11:51:16.310Z,956.57
2022-10-25T11:52:16.251Z,956.52
2022-10-25T11:53:16.223Z,956.57
2022-10-25T11:54:16.193Z,956.54
2022-10-25T11:55:16.251Z,956.53
2022-10-25T11:56:16.230Z,956.49
2022-10-25T11:57:16.167Z,956.49
2022-10-25T11:58:16.146Z,956.47
2022-10-25T11:59:16.144Z,956.49
2022-10-25T12:00:16.351Z,956.41
2022-10-25T12:01:16.245Z,956.45
2022-10-25T12:02:16.195Z,956.41
2022-10-25T12:03:16.189Z,956.45
2022-10-25T12:04:16.070Z,956.41
2022-10-25T12:05:16.077Z,956.39
2022-10-25T12:06:16.038Z,956.40
2022-10-25T12:07:16.044Z,956.38
2022-10-25T12:08:16.033Z,956.38
2022-10-25T12:09:16.024Z,956.41
2022-10-25T12:10:15.983Z,956.37
2022-10-25T12:11:18.749Z,956.37
2022-10-25T12:12:15.957Z,956.37
2022-10-25T12:13:15.939Z,956.37
2022-10-25T12:14:15.933Z,956.35
2022-10-25T12:15:15.911Z,956.36
2022-10-25T12:16:15.942Z,956.32
2022-10-25T12:17:15.934Z,956.34
2022-10-25T12:18:15.902Z,956.31
2022-10-25T12:19:15.899Z,956.30
2022-10-25T12:20:15.876Z,956.27
2022-10-25T12:21:15.833Z,956.27
2022-10-25T12:22:15.838Z,956.22
2022-10-25T12:23:15.823Z,956.23
2022-10-25T12:24:15.810Z,956.22
2022-10-25T12:25:15.808Z,956.21
2022-10-25T12:26:15.778Z,956.15
2022-10-25T12:27:15.788Z,956.12
2022-10-25T12:28:15.752Z,956.12
2022-10-25T12:29:15.735Z,956.15
2022-10-25T12:30:15.791Z,956.11
2022-10-25T12:31:15.711Z,956.14
2022-10-25T12:32:15.719Z,956.13